sensor_id;sensor_type;location;lat;lon;timestamp;temperature;humidity
19397;DHT22;9834;48.076;11.878;2022-10-16T00:01:06;11.80;99.90
19397;DHT22;9834;48.076;11.878;2022-10-16T00:03:33;11.80;99.90
19397;DHT22;9834;48.076;11.878;2022-10-16T00:06:01;11.70;99.90
19397;DHT22;9834;48.076;11.878;2022-10-16T00:08:30;11.70;99.90
19397;DHT22;9834;48.076;11.878;2022-10-16T00:11:01;11.60;99.90
19397;DHT22;9834;48.076;11.878;2022-10-16T00:13:29;11.60;99.90
19397;DHT22;9834;48.076;11.878;2022-10-16T00:15:56;11.50;99.90
19397;DHT22;9834;48.076;11.878;2022-10-16T00:18:24;11.40;99.90
19397;DHT22;9834;48.076;11.878;2022-10-16T00:20:52;11.30;99.90
19397;DHT22;9834;48.076;11.878;2022-10-16T00:23:20;11.20;99.90
19397;DHT22;9834;48.076;11.878;2022-10-16T00:25:56;11.20;99.90
19397;DHT22;9834;48.076;11.878;2022-10-16T00:28:23;11.20;99.90
19397;DHT22;9834;48.076;11.878;2022-10-16T00:30:50;11.10;99.90
19397;DHT22;9834;48.076;11.878;2022-10-16T00:33:17;11.10;99.90
19397;DHT22;9834;48.076;11.878;2022-10-16T00:35:45;11.10;99.90
19397;DHT22;9834;48.076;11.878;2022-10-16T00:38:12;11.10;99.90
19397;DHT22;9834;48.076;11.878;2022-10-16T00:40:39;11.10;99.90
19397;DHT22;9834;48.076;11.878;2022-10-16T00:43:12;11.10;99.90
19397;DHT22;9834;48.076;11.878;2022-10-16T00:45:40;11.20;99.90
19397;DHT22;9834;48.076;11.878;2022-10-16T00:48:11;10.90;99.90
19397;DHT22;9834;48.076;11.878;2022-10-16T00:50:40;11.10;99.90
19397;DHT22;9834;48.076;11.878;2022-10-16T00:53:10;11.00;99.90
19397;DHT22;9834;48.076;11.878;2022-10-16T00:55:38;11.10;99.90
19397;DHT22;9834;48.076;11.878;2022-10-16T00:58:05;11.10;99.90
19397;DHT22;9834;48.076;11.878;2022-10-16T01:00:34;11.10;99.90
19397;DHT22;9834;48.076;11.878;2022-10-16T01:03:02;11.00;99.90
19397;DHT22;9834;48.076;11.878;2022-10-16T01:05:34;11.00;99.90
19397;DHT22;9834;48.076;11.878;2022-10-16T01:08:09;11.00;99.90
19397;DHT22;9834;48.076;11.878;2022-10-16T01:10:41;11.00;99.90
19397;DHT22;9834;48.076;11.878;2022-10-16T01:13:14;11.00;99.90
19397;DHT22;9834;48.076;11.878;2022-10-16T01:15:47;11.00;99.90
19397;DHT22;9834;48.076;11.878;2022-10-16T01:18:21;11.00;99.90
19397;DHT22;9834;48.076;11.878;2022-10-16T01:20:53;10.90;99.90
19397;DHT22;9834;48.076;11.878;2022-10-16T01:23:28;11.10;99.90
19397;DHT22;9834;48.076;11.878;2022-10-16T01:26:13;11.20;99.90
19397;DHT22;9834;48.076;11.878;2022-10-16T01:28:49;11.30;99.90
19397;DHT22;9834;48.076;11.878;2022-10-16T01:31:19;11.40;99.90
19397;DHT22;9834;48.076;11.878;2022-10-16T01:33:51;11.40;99.90
19397;DHT22;9834;48.076;11.878;2022-10-16T01:36:24;11.50;99.90
19397;DHT22;9834;48.076;11.878;2022-10-16T01:38:55;11.50;99.90
19397;DHT22;9834;48.076;11.878;2022-10-16T01:41:26;11.40;99.90
19397;DHT22;9834;48.076;11.878;2022-10-16T01:44:00;11.40;99.90
19397;DHT22;9834;48.076;11.878;2022-10-16T01:46:31;11.50;99.90
19397;DHT22;9834;48.076;11.878;2022-10-16T01:49:02;11.50;99.90
19397;DHT22;9834;48.076;11.878;2022-10-16T01:51:30;11.40;99.90
19397;DHT22;9834;48.076;11.878;2022-10-16T01:54:00;11.40;99.90
19397;DHT22;9834;48.076;11.878;2022-10-16T01:56:29;11.40;99.90
19397;DHT22;9834;48.076;11.878;2022-10-16T01:59:01;11.30;99.90
19397;DHT22;9834;48.076;11.878;2022-10-16T02:01:31;11.40;99.90
19397;DHT22;9834;48.076;11.878;2022-10-16T02:04:07;11.40;99.90
19397;DHT22;9834;48.076;11.878;2022-10-16T02:06:34;11.40;99.90
19397;DHT22;9834;48.076;11.878;2022-10-16T02:09:01;11.40;99.90
19397;DHT22;9834;48.076;11.878;2022-10-16T02:11:28;11.40;99.90
19397;DHT22;9834;48.076;11.878;2022-10-16T02:14:00;11.40;99.90
19397;DHT22;9834;48.076;11.878;2022-10-16T02:16:33;11.40;99.90
19397;DHT22;9834;48.076;11.878;2022-10-16T02:19:01;11.40;99.90
19397;DHT22;9834;48.076;11.878;2022-10-16T02:21:31;11.60;99.90
19397;DHT22;9834;48.076;11.878;2022-10-16T02:24:04;11.30;99.90
19397;DHT22;9834;48.076;11.878;2022-10-16T02:26:37;11.20;99.90
19397;DHT22;9834;48.076;11.878;2022-10-16T02:29:12;11.20;99.90
19397;DHT22;9834;48.076;11.878;2022-10-16T02:31:44;11.20;99.90
19397;DHT22;9834;48.076;11.878;2022-10-16T02:34:14;11.20;99.90
19397;DHT22;9834;48.076;11.878;2022-10-16T02:36:44;11.20;99.90
19397;DHT22;9834;48.076;11.878;2022-10-16T02:39:14;11.30;99.90
19397;DHT22;9834;48.076;11.878;2022-10-16T02:41:42;11.30;99.90
19397;DHT22;9834;48.076;11.878;2022-10-16T02:44:11;11.20;99.90
19397;DHT22;9834;48.076;11.878;2022-10-16T02:46:38;11.10;99.90
19397;DHT22;9834;48.076;11.878;2022-10-16T02:49:05;11.00;99.90
19397;DHT22;9834;48.076;11.878;2022-10-16T02:51:32;11.00;99.90
19397;DHT22;9834;48.076;11.878;2022-10-16T02:54:01;11.10;99.90
19397;DHT22;9834;48.076;11.878;2022-10-16T02:56:28;11.10;99.90
19397;DHT22;9834;48.076;11.878;2022-10-16T02:58:55;11.10;99.90
19397;DHT22;9834;48.076;11.878;2022-10-16T03:01:24;11.10;99.90
19397;DHT22;9834;48.076;11.878;2022-10-16T03:03:51;11.10;99.90
19397;DHT22;9834;48.076;11.878;2022-10-16T03:06:18;11.10;99.90
19397;DHT22;9834;48.076;11.878;2022-10-16T03:08:45;11.10;99.90
19397;DHT22;9834;48.076;11.878;2022-10-16T03:11:12;11.10;99.90
19397;DHT22;9834;48.076;11.878;2022-10-16T03:13:39;11.00;99.90
19397;DHT22;9834;48.076;11.878;2022-10-16T03:16:06;10.90;99.90
19397;DHT22;9834;48.076;11.878;2022-10-16T03:18:34;10.90;99.90
19397;DHT22;9834;48.076;11.878;2022-10-16T03:21:01;10.90;99.90
19397;DHT22;9834;48.076;11.878;2022-10-16T03:23:29;10.90;99.90
19397;DHT22;9834;48.076;11.878;2022-10-16T03:25:56;11.00;99.90
19397;DHT22;9834;48.076;11.878;2022-10-16T03:28:23;11.00;99.90
19397;DHT22;9834;48.076;11.878;2022-10-16T03:30:50;11.00;99.90
19397;DHT22;9834;48.076;11.878;2022-10-16T03:33:17;11.00;99.90
19397;DHT22;9834;48.076;11.878;2022-10-16T03:35:51;11.00;99.90
19397;DHT22;9834;48.076;11.878;2022-10-16T03:38:19;11.00;99.90
19397;DHT22;9834;48.076;11.878;2022-10-16T03:40:46;11.00;99.90
19397;DHT22;9834;48.076;11.878;2022-10-16T03:43:13;11.10;99.90
19397;DHT22;9834;48.076;11.878;2022-10-16T03:45:40;11.10;99.90
19397;DHT22;9834;48.076;11.878;2022-10-16T03:48:07;11.10;99.90
19397;DHT22;9834;48.076;11.878;2022-10-16T03:50:34;11.10;99.90
19397;DHT22;9834;48.076;11.878;2022-10-16T03:53:03;11.10;99.90
19397;DHT22;9834;48.076;11.878;2022-10-16T03:55:30;11.10;99.90
19397;DHT22;9834;48.076;11.878;2022-10-16T03:57:57;11.10;99.90
19397;DHT22;9834;48.076;11.878;2022-10-16T04:00:24;11.00;99.90
19397;DHT22;9834;48.076;11.878;2022-10-16T04:02:51;11.10;99.90
19397;DHT22;9834;48.076;11.878;2022-10-16T04:05:18;11.10;99.90
19397;DHT22;9834;48.076;11.878;2022-10-16T04:07:47;11.10;99.90
19397;DHT22;9834;48.076;11.878;2022-10-16T04:10:16;11.10;99.90
19397;DHT22;9834;48.076;11.878;2022-10-16T04:12:43;11.00;99.90
19397;DHT22;9834;48.076;11.878;2022-10-16T04:15:13;11.10;99.90
19397;DHT22;9834;48.076;11.878;2022-10-16T04:17:40;11.10;99.90
19397;DHT22;9834;48.076;11.878;2022-10-16T04:20:07;11.10;99.90
19397;DHT22;9834;48.076;11.878;2022-10-16T04:22:34;11.10;99.90
19397;DHT22;9834;48.076;11.878;2022-10-16T04:25:02;11.10;99.90
19397;DHT22;9834;48.076;11.878;2022-10-16T04:27:30;11.10;99.90
19397;DHT22;9834;48.076;11.878;2022-10-16T04:29:57;11.20;99.90
19397;DHT22;9834;48.076;11.878;2022-10-16T04:32:25;11.20;99.90
19397;DHT22;9834;48.076;11.878;2022-10-16T04:34:52;11.30;99.90
19397;DHT22;9834;48.076;11.878;2022-10-16T04:37:23;11.20;99.90
19397;DHT22;9834;48.076;11.878;2022-10-16T04:39:51;11.30;99.90
19397;DHT22;9834;48.076;11.878;2022-10-16T04:42:18;11.30;99.90
19397;DHT22;9834;48.076;11.878;2022-10-16T04:44:47;11.40;99.90
19397;DHT22;9834;48.076;11.878;2022-10-16T04:47:14;11.40;99.90
19397;DHT22;9834;48.076;11.878;2022-10-16T04:49:41;11.40;99.90
19397;DHT22;9834;48.076;11.878;2022-10-16T04:52:08;11.40;99.90
19397;DHT22;9834;48.076;11.878;2022-10-16T04:54:35;11.50;99.90
19397;DHT22;9834;48.076;11.878;2022-10-16T04:57:02;11.50;99.90
19397;DHT22;9834;48.076;11.878;2022-10-16T04:59:30;11.50;99.90
19397;DHT22;9834;48.076;11.878;2022-10-16T05:01:59;11.40;99.90
19397;DHT22;9834;48.076;11.878;2022-10-16T05:04:26;11.40;99.90
19397;DHT22;9834;48.076;11.878;2022-10-16T05:06:52;11.40;99.90
19397;DHT22;9834;48.076;11.878;2022-10-16T05:09:20;11.40;99.90
19397;DHT22;9834;48.076;11.878;2022-10-16T05:11:49;11.40;99.90
19397;DHT22;9834;48.076;11.878;2022-10-16T05:14:16;11.50;99.90
19397;DHT22;9834;48.076;11.878;2022-10-16T05:16:44;11.50;99.90
19397;DHT22;9834;48.076;11.878;2022-10-16T05:19:14;11.60;99.90
19397;DHT22;9834;48.076;11.878;2022-10-16T05:21:41;11.60;99.90
19397;DHT22;9834;48.076;11.878;2022-10-16T05:24:08;11.60;99.90
19397;DHT22;9834;48.076;11.878;2022-10-16T05:26:35;11.60;99.90
19397;DHT22;9834;48.076;11.878;2022-10-16T05:29:03;11.60;99.90
19397;DHT22;9834;48.076;11.878;2022-10-16T05:31:30;11.70;99.90
19397;DHT22;9834;48.076;11.878;2022-10-16T05:34:01;11.70;99.90
19397;DHT22;9834;48.076;11.878;2022-10-16T05:36:30;11.80;99.90
19397;DHT22;9834;48.076;11.878;2022-10-16T05:38:57;11.80;99.90
19397;DHT22;9834;48.076;11.878;2022-10-16T05:41:24;11.80;99.90
19397;DHT22;9834;48.076;11.878;2022-10-16T05:43:51;11.90;99.90
19397;DHT22;9834;48.076;11.878;2022-10-16T05:46:19;11.90;99.90
19397;DHT22;9834;48.076;11.878;2022-10-16T05:48:46;11.90;99.90
19397;DHT22;9834;48.076;11.878;2022-10-16T05:51:14;11.90;99.90
19397;DHT22;9834;48.076;11.878;2022-10-16T05:53:43;12.00;99.90
19397;DHT22;9834;48.076;11.878;2022-10-16T05:56:11;12.00;99.90
19397;DHT22;9834;48.076;11.878;2022-10-16T05:58:40;12.00;99.90
19397;DHT22;9834;48.076;11.878;2022-10-16T06:01:11;12.00;99.90
19397;DHT22;9834;48.076;11.878;2022-10-16T06:03:39;12.00;99.90
19397;DHT22;9834;48.076;11.878;2022-10-16T06:06:11;12.00;99.90
19397;DHT22;9834;48.076;11.878;2022-10-16T06:08:38;12.00;99.90
19397;DHT22;9834;48.076;11.878;2022-10-16T06:11:08;12.00;99.90
19397;DHT22;9834;48.076;11.878;2022-10-16T06:13:36;12.10;99.90
19397;DHT22;9834;48.076;11.878;2022-10-16T06:16:04;12.20;99.90
19397;DHT22;9834;48.076;11.878;2022-10-16T06:18:31;12.30;99.90
19397;DHT22;9834;48.076;11.878;2022-10-16T06:20:58;12.40;99.90
19397;DHT22;9834;48.076;11.878;2022-10-16T06:23:28;12.40;99.90
19397;DHT22;9834;48.076;11.878;2022-10-16T06:26:04;12.50;99.90
19397;DHT22;9834;48.076;11.878;2022-10-16T06:28:33;12.60;99.90
19397;DHT22;9834;48.076;11.878;2022-10-16T06:31:00;12.70;99.90
19397;DHT22;9834;48.076;11.878;2022-10-16T06:33:27;12.70;99.90
19397;DHT22;9834;48.076;11.878;2022-10-16T06:35:54;12.70;99.90
19397;DHT22;9834;48.076;11.878;2022-10-16T06:38:26;12.70;99.90
19397;DHT22;9834;48.076;11.878;2022-10-16T06:40:53;12.70;99.90
19397;DHT22;9834;48.076;11.878;2022-10-16T06:43:21;12.80;99.90
19397;DHT22;9834;48.076;11.878;2022-10-16T06:45:52;12.90;99.90
19397;DHT22;9834;48.076;11.878;2022-10-16T06:48:19;13.00;99.90
19397;DHT22;9834;48.076;11.878;2022-10-16T06:50:56;13.10;99.90
19397;DHT22;9834;48.076;11.878;2022-10-16T06:53:23;13.20;99.90
19397;DHT22;9834;48.076;11.878;2022-10-16T06:55:50;13.20;99.90
19397;DHT22;9834;48.076;11.878;2022-10-16T06:58:17;13.20;99.90
19397;DHT22;9834;48.076;11.878;2022-10-16T07:00:45;13.30;99.90
19397;DHT22;9834;48.076;11.878;2022-10-16T07:03:14;13.40;99.90
19397;DHT22;9834;48.076;11.878;2022-10-16T07:05:42;13.50;99.90
19397;DHT22;9834;48.076;11.878;2022-10-16T07:08:09;13.50;99.90
19397;DHT22;9834;48.076;11.878;2022-10-16T07:10:37;13.60;99.90
19397;DHT22;9834;48.076;11.878;2022-10-16T07:13:04;13.70;99.90
19397;DHT22;9834;48.076;11.878;2022-10-16T07:15:32;13.80;99.90
19397;DHT22;9834;48.076;11.878;2022-10-16T07:18:00;13.90;99.90
19397;DHT22;9834;48.076;11.878;2022-10-16T07:20:28;14.00;99.90
19397;DHT22;9834;48.076;11.878;2022-10-16T07:22:55;14.20;99.90
19397;DHT22;9834;48.076;11.878;2022-10-16T07:25:22;14.30;99.90
19397;DHT22;9834;48.076;11.878;2022-10-16T07:27:49;14.40;99.90
19397;DHT22;9834;48.076;11.878;2022-10-16T07:30:16;14.40;99.90
19397;DHT22;9834;48.076;11.878;2022-10-16T07:32:43;14.40;99.90
19397;DHT22;9834;48.076;11.878;2022-10-16T07:35:10;14.40;99.90
19397;DHT22;9834;48.076;11.878;2022-10-16T07:37:39;14.40;99.90
19397;DHT22;9834;48.076;11.878;2022-10-16T07:40:07;14.50;99.90
19397;DHT22;9834;48.076;11.878;2022-10-16T07:42:34;14.50;99.90
19397;DHT22;9834;48.076;11.878;2022-10-16T07:45:01;14.70;99.90
19397;DHT22;9834;48.076;11.878;2022-10-16T07:47:28;14.80;99.90
19397;DHT22;9834;48.076;11.878;2022-10-16T07:49:56;15.00;99.90
19397;DHT22;9834;48.076;11.878;2022-10-16T07:52:23;15.10;99.90
19397;DHT22;9834;48.076;11.878;2022-10-16T07:54:54;15.10;99.90
19397;DHT22;9834;48.076;11.878;2022-10-16T07:57:24;15.20;99.90
19397;DHT22;9834;48.076;11.878;2022-10-16T07:59:50;15.30;99.90
19397;DHT22;9834;48.076;11.878;2022-10-16T08:02:17;15.40;99.90
19397;DHT22;9834;48.076;11.878;2022-10-16T08:04:46;15.50;99.90
19397;DHT22;9834;48.076;11.878;2022-10-16T08:07:14;15.60;99.90
19397;DHT22;9834;48.076;11.878;2022-10-16T08:09:41;15.60;99.90
19397;DHT22;9834;48.076;11.878;2022-10-16T08:12:09;15.70;99.90
19397;DHT22;9834;48.076;11.878;2022-10-16T08:14:36;15.70;99.90
19397;DHT22;9834;48.076;11.878;2022-10-16T08:17:03;15.80;99.90
19397;DHT22;9834;48.076;11.878;2022-10-16T08:19:30;15.90;99.90
19397;DHT22;9834;48.076;11.878;2022-10-16T08:22:00;16.00;99.90
19397;DHT22;9834;48.076;11.878;2022-10-16T08:24:27;16.10;99.90
19397;DHT22;9834;48.076;11.878;2022-10-16T08:26:56;16.20;99.90
19397;DHT22;9834;48.076;11.878;2022-10-16T08:29:24;16.30;99.90
19397;DHT22;9834;48.076;11.878;2022-10-16T08:31:51;16.50;99.90
19397;DHT22;9834;48.076;11.878;2022-10-16T08:34:18;16.60;99.90
19397;DHT22;9834;48.076;11.878;2022-10-16T08:36:45;16.80;99.90
19397;DHT22;9834;48.076;11.878;2022-10-16T08:39:12;16.80;99.90
19397;DHT22;9834;48.076;11.878;2022-10-16T08:42:07;16.90;99.90
19397;DHT22;9834;48.076;11.878;2022-10-16T08:47:49;17.20;99.90
19397;DHT22;9834;48.076;11.878;2022-10-16T08:50:21;17.30;99.90
19397;DHT22;9834;48.076;11.878;2022-10-16T08:52:49;17.50;99.90
19397;DHT22;9834;48.076;11.878;2022-10-16T08:55:27;17.70;99.90
19397;DHT22;9834;48.076;11.878;2022-10-16T08:57:55;17.80;99.90
19397;DHT22;9834;48.076;11.878;2022-10-16T09:00:22;18.00;99.90
19397;DHT22;9834;48.076;11.878;2022-10-16T09:02:54;18.20;99.90
19397;DHT22;9834;48.076;11.878;2022-10-16T09:05:40;18.30;99.90
19397;DHT22;9834;48.076;11.878;2022-10-16T09:08:17;18.50;99.90
19397;DHT22;9834;48.076;11.878;2022-10-16T09:10:53;18.70;99.90
19397;DHT22;9834;48.076;11.878;2022-10-16T09:13:26;18.90;99.90
19397;DHT22;9834;48.076;11.878;2022-10-16T09:15:59;19.00;99.90
19397;DHT22;9834;48.076;11.878;2022-10-16T09:18:35;19.30;99.90
19397;DHT22;9834;48.076;11.878;2022-10-16T09:21:10;19.60;99.90
19397;DHT22;9834;48.076;11.878;2022-10-16T09:23:39;19.90;99.90
19397;DHT22;9834;48.076;11.878;2022-10-16T09:26:11;20.20;99.90
19397;DHT22;9834;48.076;11.878;2022-10-16T09:28:38;20.50;99.90
19397;DHT22;9834;48.076;11.878;2022-10-16T09:31:07;20.70;99.90
19397;DHT22;9834;48.076;11.878;2022-10-16T09:33:39;21.00;99.90
19397;DHT22;9834;48.076;11.878;2022-10-16T09:36:08;21.30;99.90
19397;DHT22;9834;48.076;11.878;2022-10-16T09:38:36;21.50;99.90
19397;DHT22;9834;48.076;11.878;2022-10-16T09:41:13;21.80;99.90
19397;DHT22;9834;48.076;11.878;2022-10-16T09:43:47;21.90;99.90
19397;DHT22;9834;48.076;11.878;2022-10-16T09:46:24;22.00;99.90
19397;DHT22;9834;48.076;11.878;2022-10-16T09:48:59;22.20;99.90
19397;DHT22;9834;48.076;11.878;2022-10-16T09:51:27;22.30;99.90
19397;DHT22;9834;48.076;11.878;2022-10-16T09:53:57;22.50;99.90
19397;DHT22;9834;48.076;11.878;2022-10-16T09:56:26;22.60;99.90
19397;DHT22;9834;48.076;11.878;2022-10-16T09:58:56;22.80;99.90
19397;DHT22;9834;48.076;11.878;2022-10-16T10:01:29;23.00;99.90
19397;DHT22;9834;48.076;11.878;2022-10-16T10:04:01;23.20;99.90
19397;DHT22;9834;48.076;11.878;2022-10-16T10:06:30;23.40;98.00
19397;DHT22;9834;48.076;11.878;2022-10-16T10:09:05;23.70;99.20
19397;DHT22;9834;48.076;11.878;2022-10-16T10:11:48;23.90;97.30
19397;DHT22;9834;48.076;11.878;2022-10-16T10:14:30;24.10;95.40
19397;DHT22;9834;48.076;11.878;2022-10-16T10:17:14;24.30;95.30
19397;DHT22;9834;48.076;11.878;2022-10-16T10:19:46;24.60;94.70
19397;DHT22;9834;48.076;11.878;2022-10-16T10:22:41;25.00;92.70
19397;DHT22;9834;48.076;11.878;2022-10-16T10:25:43;25.50;93.10
19397;DHT22;9834;48.076;11.878;2022-10-16T10:28:23;25.80;89.80
19397;DHT22;9834;48.076;11.878;2022-10-16T10:31:01;26.10;88.50
19397;DHT22;9834;48.076;11.878;2022-10-16T10:33:38;26.40;88.10
19397;DHT22;9834;48.076;11.878;2022-10-16T10:36:21;26.60;87.70
19397;DHT22;9834;48.076;11.878;2022-10-16T10:38:54;26.90;78.30
19397;DHT22;9834;48.076;11.878;2022-10-16T10:42:00;27.30;80.00
19397;DHT22;9834;48.076;11.878;2022-10-16T10:44:53;27.30;76.80
19397;DHT22;9834;48.076;11.878;2022-10-16T10:47:30;27.50;76.70
19397;DHT22;9834;48.076;11.878;2022-10-16T10:50:07;27.70;75.30
19397;DHT22;9834;48.076;11.878;2022-10-16T10:52:47;27.90;69.70
19397;DHT22;9834;48.076;11.878;2022-10-16T10:55:25;28.30;72.10
19397;DHT22;9834;48.076;11.878;2022-10-16T10:58:12;28.40;69.70
19397;DHT22;9834;48.076;11.878;2022-10-16T11:00:49;28.90;71.00
19397;DHT22;9834;48.076;11.878;2022-10-16T11:03:31;29.10;65.40
19397;DHT22;9834;48.076;11.878;2022-10-16T11:06:06;29.40;67.20
19397;DHT22;9834;48.076;11.878;2022-10-16T11:08:40;29.40;65.40
19397;DHT22;9834;48.076;11.878;2022-10-16T11:11:14;29.70;64.10
19397;DHT22;9834;48.076;11.878;2022-10-16T11:13:47;30.10;64.30
19397;DHT22;9834;48.076;11.878;2022-10-16T11:16:23;30.30;63.20
19397;DHT22;9834;48.076;11.878;2022-10-16T11:18:56;30.00;62.60
19397;DHT22;9834;48.076;11.878;2022-10-16T11:21:30;30.70;60.70
19397;DHT22;9834;48.076;11.878;2022-10-16T11:24:03;31.10;60.20
19397;DHT22;9834;48.076;11.878;2022-10-16T11:26:34;31.40;59.20
19397;DHT22;9834;48.076;11.878;2022-10-16T11:29:04;31.20;59.30
19397;DHT22;9834;48.076;11.878;2022-10-16T11:31:38;31.50;58.20
19397;DHT22;9834;48.076;11.878;2022-10-16T11:34:11;31.80;58.30
19397;DHT22;9834;48.076;11.878;2022-10-16T11:36:46;32.20;55.00
19397;DHT22;9834;48.076;11.878;2022-10-16T11:39:20;32.60;54.20
19397;DHT22;9834;48.076;11.878;2022-10-16T11:41:50;32.70;51.00
19397;DHT22;9834;48.076;11.878;2022-10-16T11:44:34;32.60;56.10
19397;DHT22;9834;48.076;11.878;2022-10-16T11:47:11;32.60;52.90
19397;DHT22;9834;48.076;11.878;2022-10-16T11:49:40;33.10;52.90
19397;DHT22;9834;48.076;11.878;2022-10-16T11:52:16;33.20;49.40
19397;DHT22;9834;48.076;11.878;2022-10-16T11:54:49;33.50;48.90
19397;DHT22;9834;48.076;11.878;2022-10-16T11:57:23;34.20;50.10
19397;DHT22;9834;48.076;11.878;2022-10-16T11:59:53;34.50;49.70
19397;DHT22;9834;48.076;11.878;2022-10-16T12:02:43;34.00;49.70
19397;DHT22;9834;48.076;11.878;2022-10-16T12:05:21;33.80;49.80
19397;DHT22;9834;48.076;11.878;2022-10-16T12:07:55;34.10;46.50
19397;DHT22;9834;48.076;11.878;2022-10-16T12:10:30;34.40;45.60
19397;DHT22;9834;48.076;11.878;2022-10-16T12:13:25;34.60;39.30
19397;DHT22;9834;48.076;11.878;2022-10-16T12:15:50;34.90;37.50
19397;DHT22;9834;48.076;11.878;2022-10-16T12:18:21;34.90;40.70
19397;DHT22;9834;48.076;11.878;2022-10-16T12:20:55;35.20;39.70
19397;DHT22;9834;48.076;11.878;2022-10-16T12:23:24;35.80;35.40
19397;DHT22;9834;48.076;11.878;2022-10-16T12:25:56;34.90;34.10
19397;DHT22;9834;48.076;11.878;2022-10-16T12:28:27;34.70;35.80
19397;DHT22;9834;48.076;11.878;2022-10-16T12:30:57;35.00;35.60
19397;DHT22;9834;48.076;11.878;2022-10-16T12:33:27;34.40;37.50
19397;DHT22;9834;48.076;11.878;2022-10-16T12:36:00;34.10;35.70
19397;DHT22;9834;48.076;11.878;2022-10-16T12:38:32;34.30;38.00
19397;DHT22;9834;48.076;11.878;2022-10-16T12:41:06;34.80;35.10
19397;DHT22;9834;48.076;11.878;2022-10-16T12:43:39;35.10;35.90
19397;DHT22;9834;48.076;11.878;2022-10-16T12:49:23;35.60;33.30
19397;DHT22;9834;48.076;11.878;2022-10-16T12:51:56;35.50;32.90
19397;DHT22;9834;48.076;11.878;2022-10-16T12:54:27;35.20;34.60
19397;DHT22;9834;48.076;11.878;2022-10-16T12:57:12;34.60;36.50
19397;DHT22;9834;48.076;11.878;2022-10-16T12:59:50;35.10;34.90
19397;DHT22;9834;48.076;11.878;2022-10-16T13:02:45;35.60;33.50
19397;DHT22;9834;48.076;11.878;2022-10-16T13:05:26;35.60;32.80
19397;DHT22;9834;48.076;11.878;2022-10-16T13:08:05;35.90;32.50
19397;DHT22;9834;48.076;11.878;2022-10-16T13:10:39;36.40;33.50
19397;DHT22;9834;48.076;11.878;2022-10-16T13:13:39;37.00;30.90
19397;DHT22;9834;48.076;11.878;2022-10-16T13:16:18;36.80;31.10
19397;DHT22;9834;48.076;11.878;2022-10-16T13:18:55;37.00;32.20
19397;DHT22;9834;48.076;11.878;2022-10-16T13:21:37;37.70;31.90
19397;DHT22;9834;48.076;11.878;2022-10-16T13:24:13;38.00;31.00
19397;DHT22;9834;48.076;11.878;2022-10-16T13:26:48;38.00;30.10
19397;DHT22;9834;48.076;11.878;2022-10-16T13:29:24;37.90;29.50
19397;DHT22;9834;48.076;11.878;2022-10-16T13:31:56;38.00;29.30
19397;DHT22;9834;48.076;11.878;2022-10-16T13:34:25;37.90;31.10
19397;DHT22;9834;48.076;11.878;2022-10-16T13:36:53;37.30;30.10
19397;DHT22;9834;48.076;11.878;2022-10-16T13:39:30;38.00;29.70
19397;DHT22;9834;48.076;11.878;2022-10-16T13:42:05;38.60;28.20
19397;DHT22;9834;48.076;11.878;2022-10-16T13:44:39;39.20;28.90
19397;DHT22;9834;48.076;11.878;2022-10-16T13:47:15;39.50;28.30
19397;DHT22;9834;48.076;11.878;2022-10-16T13:49:44;39.70;28.90
19397;DHT22;9834;48.076;11.878;2022-10-16T13:52:19;40.20;30.00
19397;DHT22;9834;48.076;11.878;2022-10-16T13:54:47;40.40;28.50
19397;DHT22;9834;48.076;11.878;2022-10-16T13:57:15;40.60;27.60
19397;DHT22;9834;48.076;11.878;2022-10-16T13:59:43;40.90;29.30
19397;DHT22;9834;48.076;11.878;2022-10-16T14:02:15;41.50;28.20
19397;DHT22;9834;48.076;11.878;2022-10-16T14:04:44;42.40;27.80
19397;DHT22;9834;48.076;11.878;2022-10-16T14:07:12;42.50;27.10
19397;DHT22;9834;48.076;11.878;2022-10-16T14:09:40;43.30;27.00
19397;DHT22;9834;48.076;11.878;2022-10-16T14:12:08;43.60;28.00
19397;DHT22;9834;48.076;11.878;2022-10-16T14:14:41;43.50;28.80
19397;DHT22;9834;48.076;11.878;2022-10-16T14:17:14;43.50;28.00
19397;DHT22;9834;48.076;11.878;2022-10-16T14:19:44;43.40;28.30
19397;DHT22;9834;48.076;11.878;2022-10-16T14:22:19;42.30;29.40
19397;DHT22;9834;48.076;11.878;2022-10-16T14:24:47;42.00;30.80
19397;DHT22;9834;48.076;11.878;2022-10-16T14:27:20;41.30;30.00
19397;DHT22;9834;48.076;11.878;2022-10-16T14:30:01;41.50;31.10
19397;DHT22;9834;48.076;11.878;2022-10-16T14:32:29;41.40;30.00
19397;DHT22;9834;48.076;11.878;2022-10-16T14:34:56;41.30;32.00
19397;DHT22;9834;48.076;11.878;2022-10-16T14:37:23;41.10;31.90
19397;DHT22;9834;48.076;11.878;2022-10-16T14:39:51;41.50;31.30
19397;DHT22;9834;48.076;11.878;2022-10-16T14:42:18;41.80;30.90
19397;DHT22;9834;48.076;11.878;2022-10-16T14:44:46;41.90;32.80
19397;DHT22;9834;48.076;11.878;2022-10-16T14:47:15;41.70;30.00
19397;DHT22;9834;48.076;11.878;2022-10-16T14:49:48;40.70;30.70
19397;DHT22;9834;48.076;11.878;2022-10-16T14:52:15;39.80;31.00
19397;DHT22;9834;48.076;11.878;2022-10-16T14:54:42;39.40;33.40
19397;DHT22;9834;48.076;11.878;2022-10-16T14:57:17;38.80;34.40
19397;DHT22;9834;48.076;11.878;2022-10-16T14:59:45;38.20;35.10
19397;DHT22;9834;48.076;11.878;2022-10-16T15:02:16;38.30;36.50
19397;DHT22;9834;48.076;11.878;2022-10-16T15:04:45;37.40;37.60
19397;DHT22;9834;48.076;11.878;2022-10-16T15:07:13;36.50;38.50
19397;DHT22;9834;48.076;11.878;2022-10-16T15:09:40;35.10;41.10
19397;DHT22;9834;48.076;11.878;2022-10-16T15:12:07;33.80;42.80
19397;DHT22;9834;48.076;11.878;2022-10-16T15:14:34;32.60;44.30
19397;DHT22;9834;48.076;11.878;2022-10-16T15:17:01;31.50;47.40
19397;DHT22;9834;48.076;11.878;2022-10-16T15:19:28;30.20;50.50
19397;DHT22;9834;48.076;11.878;2022-10-16T15:21:56;28.90;53.30
19397;DHT22;9834;48.076;11.878;2022-10-16T15:24:27;27.60;57.40
19397;DHT22;9834;48.076;11.878;2022-10-16T15:26:54;26.30;59.30
19397;DHT22;9834;48.076;11.878;2022-10-16T15:29:21;25.60;63.20
19397;DHT22;9834;48.076;11.878;2022-10-16T15:31:48;24.70;64.60
19397;DHT22;9834;48.076;11.878;2022-10-16T15:34:16;24.10;67.20
19397;DHT22;9834;48.076;11.878;2022-10-16T15:36:45;23.60;70.20
19397;DHT22;9834;48.076;11.878;2022-10-16T15:39:13;23.20;71.60
19397;DHT22;9834;48.076;11.878;2022-10-16T15:41:42;22.80;75.10
19397;DHT22;9834;48.076;11.878;2022-10-16T15:44:10;22.40;78.40
19397;DHT22;9834;48.076;11.878;2022-10-16T15:46:37;22.00;80.70
19397;DHT22;9834;48.076;11.878;2022-10-16T15:49:04;21.70;82.20
19397;DHT22;9834;48.076;11.878;2022-10-16T15:51:31;21.40;85.20
19397;DHT22;9834;48.076;11.878;2022-10-16T15:54:00;21.10;88.90
19397;DHT22;9834;48.076;11.878;2022-10-16T15:56:27;20.90;91.20
19397;DHT22;9834;48.076;11.878;2022-10-16T15:58:56;20.50;92.10